createdAt,value
2018-05-12T00:01:25.830Z,89.20
2018-05-12T00:03:54.013Z,89.30
2018-05-12T00:06:22.175Z,87.40
2018-05-12T00:08:50.372Z,89.10
2018-05-12T00:11:18.637Z,90.00
2018-05-12T00:13:46.824Z,89.90
2018-05-12T00:16:14.987Z,89.60
2018-05-12T00:18:43.135Z,90.20
2018-05-12T00:21:12.134Z,90.60
2018-05-12T00:23:40.316Z,90.30
2018-05-12T00:26:08.522Z,88.10
2018-05-12T00:28:36.678Z,86.80
2018-05-12T00:31:04.912Z,86.70
2018-05-12T00:33:33.064Z,88.60
2018-05-12T00:36:01.256Z,88.10
2018-05-12T00:38:29.431Z,87.60
2018-05-12T00:40:57.954Z,89.30
2018-05-12T00:43:26.122Z,89.70
2018-05-12T00:45:54.355Z,90.40
2018-05-12T00:48:22.527Z,86.40
2018-05-12T00:50:50.814Z,85.70
2018-05-12T00:53:18.991Z,87.00
2018-05-12T00:55:47.235Z,88.20
2018-05-12T00:58:15.381Z,88.80
2018-05-12T01:00:43.850Z,89.90
2018-05-12T01:03:12.040Z,89.90
2018-05-12T01:05:41.022Z,89.30
2018-05-12T01:08:09.206Z,89.30
2018-05-12T01:10:37.656Z,89.10
2018-05-12T01:13:05.835Z,88.00
2018-05-12T01:15:34.042Z,88.30
2018-05-12T01:18:02.282Z,88.30
2018-05-12T01:20:30.547Z,89.90
2018-05-12T01:22:58.722Z,90.40
2018-05-12T01:25:26.923Z,90.20
2018-05-12T01:27:55.114Z,88.30
2018-05-12T01:30:23.374Z,88.40
2018-05-12T01:32:51.570Z,89.10
2018-05-12T01:35:20.531Z,87.60
2018-05-12T01:37:48.721Z,87.60
2018-05-12T01:40:17.066Z,88.70
2018-05-12T01:42:45.261Z,89.10
2018-05-12T01:45:13.556Z,88.30
2018-05-12T01:47:41.730Z,89.20
2018-05-12T01:50:09.946Z,90.10
2018-05-12T01:52:38.174Z,90.20
2018-05-12T01:55:06.470Z,90.00
2018-05-12T01:57:34.734Z,85.30
2018-05-12T02:00:02.973Z,86.30
2018-05-12T02:02:31.189Z,88.20
2018-05-12T02:04:59.366Z,90.20
2018-05-12T02:07:28.335Z,89.50
2018-05-12T02:09:56.775Z,89.50
2018-05-12T02:12:24.978Z,89.50
2018-05-12T02:14:53.154Z,90.00
2018-05-12T02:17:21.458Z,87.80
2018-05-12T02:19:49.632Z,88.80
2018-05-12T02:22:17.818Z,90.10
2018-05-12T02:24:46.766Z,90.70
2018-05-12T02:27:14.959Z,90.70
2018-05-12T02:29:45.187Z,89.10
2018-05-12T02:32:13.378Z,89.10
2018-05-12T02:34:42.335Z,91.00
2018-05-12T02:37:10.642Z,90.90
2018-05-12T02:39:38.863Z,90.90
2018-05-12T02:42:07.059Z,90.00
2018-05-12T02:44:35.262Z,88.00
2018-05-12T02:47:03.534Z,90.00
2018-05-12T02:49:31.914Z,90.10
2018-05-12T02:52:00.136Z,90.40
2018-05-12T02:54:28.315Z,90.50
2018-05-12T02:56:56.524Z,90.80
2018-05-12T02:59:24.783Z,91.00
2018-05-12T03:01:52.968Z,91.60
2018-05-12T03:04:21.183Z,91.60
2018-05-12T03:06:50.117Z,92.00
2018-05-12T03:09:19.148Z,91.90
2018-05-12T03:11:47.325Z,91.80
2018-05-12T03:14:15.517Z,91.60
2018-05-12T03:16:44.475Z,91.20
2018-05-12T03:19:12.681Z,91.20
2018-05-12T03:21:41.622Z,89.30
2018-05-12T03:24:09.826Z,89.90
2018-05-12T03:26:38.008Z,90.10
2018-05-12T03:29:06.206Z,90.70
2018-05-12T03:31:35.155Z,90.20
2018-05-12T03:34:03.379Z,90.20
2018-05-12T03:36:31.558Z,90.20
2018-05-12T03:39:00.517Z,90.50
2018-05-12T03:41:28.699Z,90.50
2018-05-12T03:43:56.891Z,90.70
2018-05-12T03:46:25.830Z,90.10
2018-05-12T03:48:54.139Z,90.10
2018-05-12T03:51:22.425Z,90.10
2018-05-12T03:53:50.628Z,88.40
2018-05-12T03:56:18.834Z,88.80
2018-05-12T03:58:47.159Z,90.10
2018-05-12T04:01:16.139Z,90.80
2018-05-12T04:03:44.324Z,90.80
2018-05-12T04:06:24.314Z,90.20
2018-05-12T04:09:04.470Z,91.20
2018-05-12T04:11:44.770Z,91.50
2018-05-12T04:14:12.985Z,91.20
2018-05-12T04:16:41.913Z,90.40
2018-05-12T04:19:10.382Z,90.40
2018-05-12T04:21:38.572Z,90.90
2018-05-12T04:24:06.762Z,90.90
2018-05-12T04:26:34.946Z,91.00
2018-05-12T04:29:03.210Z,90.00
2018-05-12T04:31:31.407Z,89.80
2018-05-12T04:33:59.598Z,90.40
2018-05-12T04:36:27.852Z,90.40
2018-05-12T04:38:56.182Z,90.50
2018-05-12T04:41:24.712Z,90.90
2018-05-12T04:43:52.898Z,90.70
2018-05-12T04:46:21.847Z,91.20
2018-05-12T04:48:50.094Z,91.20
2018-05-12T04:51:19.053Z,91.30
2018-05-12T04:53:48.678Z,91.50
2018-05-12T04:56:17.743Z,90.80
2018-05-12T04:58:46.071Z,90.80
2018-05-12T05:01:14.294Z,90.70
2018-05-12T05:03:42.473Z,90.80
2018-05-12T05:06:10.756Z,90.80
2018-05-12T05:08:38.981Z,90.90
2018-05-12T05:11:07.183Z,90.80
2018-05-12T05:13:35.364Z,90.80
2018-05-12T05:16:03.571Z,91.10
2018-05-12T05:18:31.906Z,91.40
2018-05-12T05:21:00.107Z,91.40
2018-05-12T05:23:28.289Z,91.70
2018-05-12T05:25:56.474Z,91.80
2018-05-12T05:28:24.829Z,91.60
2018-05-12T05:30:53.023Z,91.80
2018-05-12T05:33:21.967Z,92.00
2018-05-12T05:35:50.154Z,91.70
2018-05-12T05:38:18.491Z,91.50
2018-05-12T05:40:46.682Z,91.50
2018-05-12T05:43:14.860Z,91.50
2018-05-12T05:45:43.054Z,91.30
2018-05-12T05:48:12.207Z,91.30
2018-05-12T05:50:40.442Z,91.10
2018-05-12T05:53:08.628Z,91.30
2018-05-12T05:55:36.825Z,91.20
2018-05-12T05:58:05.117Z,91.00
2018-05-12T06:00:33.326Z,90.80
2018-05-12T06:03:01.497Z,90.80
2018-05-12T06:05:29.690Z,90.70
2018-05-12T06:07:57.944Z,90.20
2018-05-12T06:10:26.143Z,90.10
2018-05-12T06:12:54.316Z,90.20
2018-05-12T06:15:22.515Z,90.30
2018-05-12T06:17:50.779Z,90.00
2018-05-12T06:20:19.718Z,88.80
2018-05-12T06:22:47.929Z,88.90
2018-05-12T06:25:16.758Z,88.70
2018-05-12T06:27:45.102Z,88.20
2018-05-12T06:30:13.276Z,88.40
2018-05-12T06:32:41.567Z,87.50
2018-05-12T06:35:10.556Z,87.00
2018-05-12T06:37:38.786Z,86.90
2018-05-12T06:40:06.972Z,86.90
2018-05-12T06:42:35.166Z,86.90
2018-05-12T06:45:03.343Z,86.30
2018-05-12T06:47:31.624Z,84.50
2018-05-12T06:49:59.815Z,84.60
2018-05-12T06:52:28.805Z,83.90
2018-05-12T06:54:57.754Z,83.40
2018-05-12T06:57:26.050Z,83.40
2018-05-12T06:59:54.235Z,83.60
2018-05-12T07:02:22.450Z,81.90
2018-05-12T07:04:50.638Z,81.30
2018-05-12T07:07:18.966Z,82.10
2018-05-12T07:09:48.663Z,81.70
2018-05-12T07:12:16.925Z,81.60
2018-05-12T07:14:45.814Z,78.60
2018-05-12T07:17:14.123Z,78.60
2018-05-12T07:19:42.322Z,79.00
2018-05-12T07:22:11.282Z,78.10
2018-05-12T07:24:40.966Z,79.80
2018-05-12T07:27:09.179Z,79.70
2018-05-12T07:29:37.526Z,77.70
2018-05-12T07:32:05.738Z,76.60
2018-05-12T07:34:34.699Z,76.00
2018-05-12T07:37:02.890Z,76.00
2018-05-12T07:39:31.091Z,75.70
2018-05-12T07:42:00.042Z,74.10
2018-05-12T07:44:28.239Z,74.00
2018-05-12T07:46:56.554Z,74.00
2018-05-12T07:49:24.763Z,74.90
2018-05-12T07:51:52.963Z,75.20
2018-05-12T07:54:21.154Z,73.80
2018-05-12T07:56:49.423Z,73.70
2018-05-12T07:59:18.390Z,74.10
2018-05-12T08:01:46.587Z,74.10
2018-05-12T08:04:14.787Z,73.00
2018-05-12T08:06:43.091Z,71.90
2018-05-12T08:09:11.291Z,72.00
2018-05-12T08:11:39.583Z,72.00
2018-05-12T08:14:07.782Z,71.50
2018-05-12T08:16:36.080Z,71.60
2018-05-12T08:19:04.274Z,68.90
2018-05-12T08:21:32.470Z,69.50
2018-05-12T08:24:00.687Z,69.20
2018-05-12T08:26:29.031Z,66.40
2018-05-12T08:28:57.237Z,67.90
2018-05-12T08:31:26.191Z,68.10
2018-05-12T08:33:54.398Z,68.10
2018-05-12T08:36:22.723Z,67.70
2018-05-12T08:38:50.923Z,66.20
2018-05-12T08:41:19.216Z,66.20
2018-05-12T08:43:48.183Z,67.50
2018-05-12T08:46:16.414Z,67.40
2018-05-12T08:48:44.613Z,64.90
2018-05-12T08:51:12.788Z,63.20
2018-05-12T08:53:41.015Z,62.40
2018-05-12T08:56:09.418Z,63.30
2018-05-12T08:58:37.665Z,63.20
2018-05-12T09:01:05.827Z,64.10
2018-05-12T09:03:34.064Z,63.00
2018-05-12T09:06:02.347Z,62.20
2018-05-12T09:08:30.510Z,62.20
2018-05-12T09:10:58.732Z,61.70
2018-05-12T09:13:28.549Z,62.40
2018-05-12T09:15:56.828Z,62.40
2018-05-12T09:18:25.040Z,62.10
2018-05-12T09:20:53.272Z,60.20
2018-05-12T09:23:22.942Z,59.70
2018-05-12T09:25:51.214Z,59.60
2018-05-12T09:28:19.398Z,59.00
2018-05-12T09:30:47.594Z,59.20
2018-05-12T09:33:15.892Z,58.70
2018-05-12T09:35:44.163Z,58.70
2018-05-12T09:38:12.323Z,59.00
2018-05-12T09:40:40.522Z,57.80
2018-05-12T09:43:09.488Z,56.50
2018-05-12T09:45:37.731Z,56.60
2018-05-12T09:48:05.970Z,57.30
2018-05-12T09:50:34.934Z,57.80
2018-05-12T09:53:03.124Z,57.80
2018-05-12T09:55:32.321Z,57.30
2018-05-12T09:58:01.266Z,56.00
2018-05-12T10:00:29.487Z,56.00
2018-05-12T10:02:57.749Z,55.30
2018-05-12T10:05:26.003Z,56.20
2018-05-12T10:07:54.183Z,55.90
2018-05-12T10:10:22.411Z,54.10
2018-05-12T10:12:51.359Z,52.60
2018-05-12T10:15:19.614Z,52.50
2018-05-12T10:17:47.799Z,53.70
2018-05-12T10:20:15.988Z,54.20
2018-05-12T10:22:44.160Z,52.40
2018-05-12T10:25:12.450Z,51.50
2018-05-12T10:27:40.624Z,50.20
2018-05-12T10:30:08.810Z,48.20
2018-05-12T10:32:36.976Z,48.10
2018-05-12T10:35:05.168Z,47.80
2018-05-12T10:37:34.660Z,47.80
2018-05-12T10:40:02.876Z,47.80
2018-05-12T10:42:31.087Z,47.50
2018-05-12T10:45:00.691Z,48.60
2018-05-12T10:47:28.879Z,48.70
2018-05-12T10:49:57.043Z,45.90
2018-05-12T10:52:25.846Z,47.70
2018-05-12T10:54:54.055Z,48.10
2018-05-12T10:57:23.001Z,46.80
2018-05-12T10:59:51.297Z,46.70
2018-05-12T11:02:19.483Z,46.60
2018-05-12T11:04:47.809Z,45.30
2018-05-12T11:07:16.006Z,45.40
2018-05-12T11:09:44.173Z,45.90
2018-05-12T11:12:12.363Z,45.00
2018-05-12T11:14:40.578Z,45.70
2018-05-12T11:17:08.770Z,43.80
2018-05-12T11:19:36.966Z,43.70
2018-05-12T11:22:05.278Z,45.20
2018-05-12T11:24:33.565Z,43.90
2018-05-12T11:27:02.518Z,44.30
2018-05-12T11:29:32.222Z,43.30
2018-05-12T11:32:00.434Z,43.30
2018-05-12T11:34:28.647Z,44.10
2018-05-12T11:36:56.857Z,43.80
2018-05-12T11:39:25.040Z,44.10
2018-05-12T11:41:53.234Z,44.70
2018-05-12T11:44:21.569Z,42.40
2018-05-12T11:46:49.780Z,40.60
2018-05-12T11:49:18.723Z,41.90
2018-05-12T11:51:46.914Z,41.30
2018-05-12T11:54:15.142Z,39.00
2018-05-12T11:56:44.127Z,41.90
2018-05-12T11:59:12.385Z,41.90
2018-05-12T12:01:40.602Z,41.00
2018-05-12T12:04:09.100Z,40.30
2018-05-12T12:06:37.317Z,39.50
2018-05-12T12:09:06.991Z,39.80
2018-05-12T12:11:35.202Z,39.80
2018-05-12T12:14:04.983Z,39.60
2018-05-12T12:16:33.207Z,39.10
2018-05-12T12:19:01.348Z,37.00
2018-05-12T12:21:29.567Z,37.00
2018-05-12T12:23:58.604Z,36.90
2018-05-12T12:26:26.789Z,36.90
2018-05-12T12:28:54.955Z,37.00
2018-05-12T12:31:23.124Z,36.20
2018-05-12T12:33:51.382Z,36.50
2018-05-12T12:36:19.553Z,38.30
2018-05-12T12:38:47.743Z,38.40
2018-05-12T12:41:15.914Z,37.90
2018-05-12T12:43:44.186Z,37.00
2018-05-12T12:46:12.399Z,38.50
2018-05-12T12:48:40.606Z,36.50
2018-05-12T12:51:09.574Z,39.40
2018-05-12T12:53:37.802Z,39.40
2018-05-12T12:56:05.971Z,38.80
2018-05-12T12:58:34.159Z,37.80
2018-05-12T13:01:02.362Z,37.70
2018-05-12T13:03:30.802Z,37.80
2018-05-12T13:05:59.005Z,38.10
2018-05-12T13:08:27.178Z,37.00
2018-05-12T13:10:55.351Z,34.90
2018-05-12T13:13:23.604Z,37.50
2018-05-12T13:15:51.810Z,37.50
2018-05-12T13:18:20.000Z,37.00
2018-05-12T13:20:49.684Z,35.10
2018-05-12T13:23:17.930Z,35.10
2018-05-12T13:25:46.106Z,35.60
2018-05-12T13:28:14.297Z,35.80
2018-05-12T13:30:42.471Z,37.20
2018-05-12T13:33:10.943Z,34.40
2018-05-12T13:35:39.127Z,35.70
2018-05-12T13:38:07.341Z,34.30
2018-05-12T13:40:35.499Z,33.80
2018-05-12T13:43:03.850Z,35.10
2018-05-12T13:45:32.068Z,34.50
2018-05-12T13:48:00.263Z,34.60
2018-05-12T13:50:29.219Z,33.70
2018-05-12T13:52:57.417Z,33.70
2018-05-12T13:55:25.877Z,34.10
2018-05-12T13:57:54.070Z,34.10
2018-05-12T14:00:23.034Z,34.00
2018-05-12T14:02:51.261Z,33.90
2018-05-12T14:05:20.183Z,32.30
2018-05-12T14:07:48.345Z,32.30
2018-05-12T14:10:16.534Z,33.00
2018-05-12T14:12:44.888Z,33.30
2018-05-12T14:15:13.907Z,32.20
2018-05-12T14:17:42.074Z,32.60
2018-05-12T14:20:10.261Z,32.40
2018-05-12T14:22:39.262Z,32.80
2018-05-12T14:25:07.450Z,32.80
2018-05-12T14:27:35.627Z,34.60
2018-05-12T14:30:03.807Z,33.10
2018-05-12T14:32:32.422Z,34.10
2018-05-12T14:35:00.631Z,34.10
2018-05-12T14:37:28.795Z,34.40
2018-05-12T14:39:56.974Z,34.90
2018-05-12T14:42:25.231Z,34.80
2018-05-12T14:44:53.414Z,35.60
2018-05-12T14:47:21.583Z,35.30
2018-05-12T14:49:49.766Z,35.60
2018-05-12T14:52:18.794Z,36.20
2018-05-12T14:54:46.983Z,36.20
2018-05-12T14:57:15.183Z,34.60
2018-05-12T14:59:44.143Z,38.10
2018-05-12T15:02:12.362Z,38.10
2018-05-12T15:04:40.547Z,35.90
2018-05-12T15:07:08.721Z,36.80
2018-05-12T15:09:36.958Z,37.10
2018-05-12T15:12:05.259Z,38.10
2018-05-12T15:14:34.211Z,37.70
2018-05-12T15:17:02.392Z,37.60
2018-05-12T15:19:30.574Z,40.00
2018-05-12T15:21:58.784Z,39.70
2018-05-12T15:24:26.974Z,38.60
2018-05-12T15:26:55.144Z,39.40
2018-05-12T15:29:23.321Z,40.30
2018-05-12T15:31:51.582Z,40.60
2018-05-12T15:34:19.779Z,40.50
2018-05-12T15:36:47.958Z,38.90
2018-05-12T15:39:16.141Z,39.80
2018-05-12T15:41:44.387Z,39.10
2018-05-12T15:44:12.620Z,39.10
2018-05-12T15:46:40.758Z,37.90
2018-05-12T15:49:08.942Z,38.80
2018-05-12T15:51:37.170Z,39.60
2018-05-12T15:54:05.388Z,38.00
2018-05-12T15:56:33.618Z,39.00
2018-05-12T15:59:02.553Z,38.50
2018-05-12T16:01:30.824Z,38.50
2018-05-12T16:03:59.023Z,39.90
2018-05-12T16:06:27.207Z,37.90
2018-05-12T16:08:55.412Z,38.30
2018-05-12T16:11:24.470Z,39.20
2018-05-12T16:13:52.659Z,39.20
2018-05-12T16:16:20.839Z,39.40
2018-05-12T16:18:49.025Z,40.00
2018-05-12T16:21:17.376Z,41.80
2018-05-12T16:23:45.558Z,41.60
2018-05-12T16:26:14.544Z,41.90
2018-05-12T16:28:42.759Z,41.90
2018-05-12T16:31:11.317Z,41.50
2018-05-12T16:33:39.500Z,41.70
2018-05-12T16:36:08.456Z,48.10
2018-05-12T16:38:36.634Z,48.10
2018-05-12T16:41:04.905Z,49.50
2018-05-12T16:43:33.090Z,50.70
2018-05-12T16:46:01.312Z,49.10
2018-05-12T16:48:29.486Z,48.90
2018-05-12T16:50:57.947Z,47.80
2018-05-12T16:53:25.984Z,46.30
2018-05-12T16:55:54.175Z,45.70
2018-05-12T16:58:22.347Z,45.00
2018-05-12T17:00:52.203Z,46.20
2018-05-12T17:03:20.388Z,46.20
2018-05-12T17:05:48.602Z,46.20
2018-05-12T17:08:16.773Z,45.50
2018-05-12T17:10:45.002Z,46.50
2018-05-12T17:13:13.234Z,46.50
2018-05-12T17:15:41.387Z,47.00
2018-05-12T17:18:09.551Z,47.40
2018-05-12T17:20:37.745Z,48.80
2018-05-12T17:23:05.933Z,50.20
2018-05-12T17:25:34.109Z,51.80
2018-05-12T17:28:03.770Z,52.70
2018-05-12T17:30:31.961Z,52.60
2018-05-12T17:33:00.143Z,52.60
2018-05-12T17:35:28.342Z,52.90
2018-05-12T17:37:57.414Z,51.50
2018-05-12T17:40:25.630Z,51.50
2018-05-12T17:42:53.836Z,52.00
2018-05-12T17:45:22.020Z,53.30
2018-05-12T17:47:50.233Z,53.30
2018-05-12T17:50:18.441Z,53.30
2018-05-12T17:52:46.654Z,53.90
2018-05-12T17:55:14.823Z,55.50
2018-05-12T17:57:43.009Z,56.00
2018-05-12T18:00:11.243Z,57.20
2018-05-12T18:02:39.438Z,57.80
2018-05-12T18:05:07.590Z,58.40
2018-05-12T18:07:35.798Z,58.40
2018-05-12T18:10:04.010Z,60.90
2018-05-12T18:12:32.217Z,62.80
2018-05-12T18:15:00.370Z,64.10
2018-05-12T18:17:28.626Z,62.60
2018-05-12T18:19:56.926Z,64.30
2018-05-12T18:22:25.130Z,63.40
2018-05-12T18:24:53.318Z,61.80
2018-05-12T18:27:21.516Z,62.30
2018-05-12T18:29:49.815Z,63.40
2018-05-12T18:32:18.059Z,63.90
2018-05-12T18:34:47.009Z,65.10
2018-05-12T18:37:15.200Z,65.10
2018-05-12T18:39:43.474Z,64.20
2018-05-12T18:42:11.650Z,65.80
2018-05-12T18:44:39.826Z,65.40
2018-05-12T18:47:08.024Z,66.10
2018-05-12T18:49:36.224Z,66.80
2018-05-12T18:52:04.420Z,67.60
2018-05-12T18:54:32.596Z,67.20
2018-05-12T18:57:02.043Z,68.00
2018-05-12T18:59:30.410Z,67.90
2018-05-12T19:01:58.597Z,68.40
2018-05-12T19:04:27.542Z,70.40
2018-05-12T19:06:55.733Z,69.40
2018-05-12T19:09:23.967Z,70.00
2018-05-12T19:11:52.158Z,69.50
2018-05-12T19:14:20.339Z,69.80
2018-05-12T19:16:48.546Z,69.70
2018-05-12T19:19:16.894Z,69.80
2018-05-12T19:21:45.109Z,70.10
2018-05-12T19:24:13.298Z,70.00
2018-05-12T19:26:41.503Z,69.60
2018-05-12T19:29:09.839Z,69.60
2018-05-12T19:31:38.010Z,70.30
2018-05-12T19:34:06.230Z,70.90
2018-05-12T19:36:34.518Z,70.50
2018-05-12T19:39:02.830Z,70.10
2018-05-12T19:41:31.023Z,70.10
2018-05-12T19:43:59.213Z,70.30
2018-05-12T19:46:28.191Z,71.10
2018-05-12T19:48:56.683Z,71.10
2018-05-12T19:51:25.680Z,72.60
2018-05-12T19:53:54.618Z,73.40
2018-05-12T19:56:22.795Z,72.60
2018-05-12T19:58:51.807Z,71.40
2018-05-12T20:01:19.975Z,71.40
2018-05-12T20:03:48.281Z,71.50
2018-05-12T20:06:16.449Z,71.60
2018-05-12T20:08:44.681Z,72.80
2018-05-12T20:11:12.853Z,71.90
2018-05-12T20:13:41.064Z,72.10
2018-05-12T20:16:10.738Z,72.00
2018-05-12T20:18:39.022Z,71.90
2018-05-12T20:21:07.223Z,72.00
2018-05-12T20:23:36.153Z,72.40
2018-05-12T20:26:04.402Z,72.00
2018-05-12T20:28:32.631Z,72.50
2018-05-12T20:31:00.809Z,72.50
2018-05-12T20:33:29.040Z,72.90
2018-05-12T20:35:57.979Z,73.80
2018-05-12T20:38:26.458Z,73.70
2018-05-12T20:40:54.626Z,74.80
2018-05-12T20:43:22.822Z,73.70
2018-05-12T20:45:51.009Z,75.00
2018-05-12T20:48:19.263Z,74.90
2018-05-12T20:50:47.437Z,74.30
2018-05-12T20:53:15.619Z,73.70
2018-05-12T20:55:43.927Z,73.90
2018-05-12T20:58:12.098Z,73.60
2018-05-12T21:00:41.804Z,74.80
2018-05-12T21:03:10.061Z,74.80
2018-05-12T21:05:38.186Z,75.40
2018-05-12T21:08:06.367Z,75.20
2018-05-12T21:10:34.706Z,75.10
2018-05-12T21:13:04.414Z,74.70
2018-05-12T21:15:33.398Z,76.50
2018-05-12T21:18:01.685Z,75.60
2018-05-12T21:20:29.878Z,75.50
2018-05-12T21:22:58.823Z,75.50
2018-05-12T21:25:27.034Z,75.50
2018-05-12T21:27:55.354Z,75.40
2018-05-12T21:30:23.562Z,75.40
2018-05-12T21:32:51.744Z,75.50
2018-05-12T21:35:19.955Z,76.70
2018-05-12T21:37:48.184Z,75.60
2018-05-12T21:40:16.411Z,76.10
2018-05-12T21:42:44.579Z,76.70
2018-05-12T21:45:12.815Z,76.00
2018-05-12T21:47:41.046Z,76.30
2018-05-12T21:50:09.243Z,76.90
2018-05-12T21:52:37.423Z,77.30
2018-05-12T21:55:05.655Z,77.80
2018-05-12T21:57:33.936Z,77.50
2018-05-12T22:00:02.156Z,77.90
2018-05-12T22:02:30.327Z,77.50
2018-05-12T22:04:58.540Z,76.20
2018-05-12T22:07:26.846Z,77.10
2018-05-12T22:09:55.044Z,77.10
2018-05-12T22:12:23.237Z,77.10
2018-05-12T22:14:51.414Z,77.90
2018-05-12T22:17:19.891Z,77.80
2018-05-12T22:19:48.058Z,78.60
2018-05-12T22:22:16.270Z,76.80
2018-05-12T22:24:45.210Z,79.10
2018-05-12T22:27:13.495Z,79.00
2018-05-12T22:29:41.672Z,79.30
2018-05-12T22:32:09.871Z,79.80
2018-05-12T22:34:39.555Z,80.10
2018-05-12T22:37:08.795Z,80.10
2018-05-12T22:39:37.762Z,79.70
2018-05-12T22:42:05.962Z,79.60
2018-05-12T22:44:34.904Z,79.80
2018-05-12T22:47:03.227Z,79.70
2018-05-12T22:49:31.385Z,80.20
2018-05-12T22:51:59.581Z,78.30
2018-05-12T22:54:28.515Z,78.80
2018-05-12T22:56:56.808Z,77.90
2018-05-12T22:59:24.996Z,78.80
2018-05-12T23:01:53.208Z,79.00
2018-05-12T23:04:22.142Z,79.20
2018-05-12T23:06:50.427Z,79.00
2018-05-12T23:09:18.619Z,79.00
2018-05-12T23:11:46.819Z,80.40
2018-05-12T23:14:15.802Z,80.90
2018-05-12T23:16:44.134Z,80.90
2018-05-12T23:19:12.312Z,81.10
2018-05-12T23:21:40.523Z,81.10
2018-05-12T23:24:10.208Z,80.30
2018-05-12T23:26:38.502Z,80.30
2018-05-12T23:29:06.673Z,80.50
2018-05-12T23:31:34.846Z,80.70
2018-05-12T23:34:03.035Z,81.10
2018-05-12T23:36:31.349Z,81.10
2018-05-12T23:38:59.542Z,80.90
2018-05-12T23:41:27.714Z,81.60
2018-05-12T23:43:55.931Z,81.10
2018-05-12T23:46:24.161Z,81.30
2018-05-12T23:48:52.347Z,81.30
2018-05-12T23:51:20.603Z,81.10
2018-05-12T23:53:48.743Z,80.80
2018-05-12T23:56:17.116Z,80.40
2018-05-12T23:58:46.090Z,78.80
